Time;durP1;ratioP1;P1;durP2;ratioP2;P2;SDS_P1;SDS_P2;PMS_P1;PMS_P2;Temp;Humidity;BMP_temperature;BMP_pressure;BME280_temperature;BME280_humidity;BME280_pressure;Samples;Min_cycle;Max_cycle;Signal;HPM_P1;HPM_P2
2021/06/07 00:01:14;;;;;;;22.30;12.02;;;;;;;15.45;92.20;96540.66;5074403;28;20059;-71
2021/06/07 00:03:40;;;;;;;18.83;10.80;;;;;;;15.51;91.04;96528.22;5074875;28;20033;-72
2021/06/07 00:06:06;;;;;;;20.60;11.10;;;;;;;15.41;91.33;96521.81;5074438;28;20051;-72
2021/06/07 00:08:31;;;;;;;21.83;10.77;;;;;;;15.44;91.64;96531.94;5074795;28;20450;-69
2021/06/07 00:10:59;;;;;;;18.17;9.82;;;;;;;15.53;91.12;96523.47;5075706;28;20048;-69
2021/06/07 00:13:28;;;;;;;16.02;9.20;;;;;;;15.55;90.31;96521.34;5074930;28;20161;-70
2021/06/07 00:15:55;;;;;;;19.20;9.77;;;;;;;15.38;91.10;96519.69;5055960;28;20045;-67
2021/06/07 00:18:25;;;;;;;20.15;9.70;;;;;;;15.53;91.01;96523.47;5073996;28;20040;-67
2021/06/07 00:20:54;;;;;;;19.08;9.07;;;;;;;15.47;90.72;96520.78;5073663;28;20048;-67
2021/06/07 00:23:20;;;;;;;18.15;9.85;;;;;;;15.32;91.95;96526.00;5056042;28;20048;-67
2021/06/07 00:25:46;;;;;;;21.25;10.50;;;;;;;15.30;92.15;96530.00;5055513;28;20094;-69
2021/06/07 00:28:14;;;;;;;16.60;8.63;;;;;;;15.49;91.20;96515.22;5077005;28;20044;-69
2021/06/07 00:30:40;;;;;;;17.60;9.50;;;;;;;15.48;91.26;96522.38;5079126;28;20040;-68
2021/06/07 00:33:06;;;;;;;20.05;9.18;;;;;;;15.36;90.98;96513.84;5060740;28;20048;-68
2021/06/07 00:35:31;;;;;;;16.38;8.98;;;;;;;15.32;91.75;96519.91;5075055;28;20138;-70
2021/06/07 00:37:57;;;;;;;17.10;9.73;;;;;;;15.34;91.90;96515.19;5073915;28;20051;-69
2021/06/07 00:40:25;;;;;;;17.55;9.43;;;;;;;15.36;91.95;96511.19;5111060;22;20044;-70
2021/06/07 00:42:53;;;;;;;17.15;8.82;;;;;;;15.42;90.50;96512.00;5096942;28;20479;-71
2021/06/07 00:45:24;;;;;;;16.73;8.73;;;;;;;15.42;91.59;96507.50;5115897;28;20491;-71
2021/06/07 00:47:51;;;;;;;15.73;8.85;;;;;;;15.37;91.43;96504.84;5115122;28;20040;-72
2021/06/07 00:50:26;;;;;;;18.63;10.00;;;;;;;15.26;91.93;96511.16;5097464;28;20043;-72
2021/06/07 00:53:02;;;;;;;18.55;9.98;;;;;;;15.23;92.30;96514.31;5116259;28;20282;-71
2021/06/07 00:55:31;;;;;;;17.77;9.15;;;;;;;15.18;92.36;96516.94;5116220;28;20035;-71
2021/06/07 00:57:57;;;;;;;18.58;9.80;;;;;;;15.17;92.58;96510.03;5116881;28;20043;-72
2021/06/07 01:00:26;;;;;;;17.98;9.73;;;;;;;15.14;92.58;96513.22;5116182;28;20100;-71
2021/06/07 01:02:51;;;;;;;17.67;9.13;;;;;;;15.14;92.87;96515.84;5115274;28;20399;-72
2021/06/07 01:05:18;;;;;;;16.73;9.35;;;;;;;15.10;92.73;96510.25;5115550;28;20039;-72
2021/06/07 01:07:44;;;;;;;20.23;10.38;;;;;;;15.11;92.75;96509.22;5115466;28;20035;-71
2021/06/07 01:10:10;;;;;;;20.13;9.65;;;;;;;15.22;92.72;96510.06;5096728;28;20050;-70
2021/06/07 01:12:36;;;;;;;18.20;9.52;;;;;;;15.18;92.63;96511.66;5097014;28;20054;-69
2021/06/07 01:15:05;;;;;;;18.05;9.00;;;;;;;15.21;92.53;96511.91;5115305;28;20043;-69
2021/06/07 01:17:32;;;;;;;18.50;8.95;;;;;;;15.40;91.39;96506.19;5114533;28;20126;-69
2021/06/07 01:19:58;;;;;;;15.93;8.70;;;;;;;15.37;91.59;96510.13;5114876;28;20044;-70
2021/06/07 01:22:25;;;;;;;16.13;8.43;;;;;;;15.25;91.50;96511.41;5114723;28;20754;-70
2021/06/07 01:24:53;;;;;;;17.50;8.90;;;;;;;15.21;91.88;96505.81;5114815;28;20032;-70
2021/06/07 01:27:19;;;;;;;17.25;9.23;;;;;;;15.28;92.06;96506.38;5115085;28;20279;-70
2021/06/07 01:29:45;;;;;;;17.60;8.93;;;;;;;15.28;92.19;96511.69;5113196;28;20051;-72
2021/06/07 01:32:11;;;;;;;16.17;8.75;;;;;;;15.28;91.96;96514.31;5095869;28;20040;-70
2021/06/07 01:34:37;;;;;;;18.00;8.90;;;;;;;15.23;91.63;96509.03;5096483;28;20035;-70
2021/06/07 01:37:03;;;;;;;15.88;8.40;;;;;;;15.19;91.88;96507.94;5114712;28;20072;-72
2021/06/07 01:39:30;;;;;;;16.48;8.63;;;;;;;15.20;92.18;96507.69;5114625;28;20043;-71
2021/06/07 01:41:56;;;;;;;18.15;9.57;;;;;;;15.25;92.01;96498.16;5114421;28;20054;-71
2021/06/07 01:44:22;;;;;;;19.02;10.10;;;;;;;15.20;91.65;96504.22;5114398;28;20048;-71
2021/06/07 01:46:48;;;;;;;18.23;8.90;;;;;;;15.28;91.37;96498.41;5114520;28;20122;-71
2021/06/07 01:49:17;;;;;;;17.10;9.40;;;;;;;15.17;92.09;96504.72;5114318;28;20063;-71
2021/06/07 01:51:43;;;;;;;19.05;10.00;;;;;;;15.14;92.08;96505.25;5096014;28;20051;-70
2021/06/07 01:54:09;;;;;;;16.95;8.82;;;;;;;15.11;91.92;96506.56;5114656;28;20039;-71
2021/06/07 01:56:38;;;;;;;18.58;9.32;;;;;;;15.17;92.76;96499.44;5096288;28;20040;-71
2021/06/07 01:59:04;;;;;;;19.65;10.30;;;;;;;15.16;92.40;96505.78;5114476;28;20051;-72
2021/06/07 02:01:30;;;;;;;17.98;9.38;;;;;;;15.11;92.09;96505.75;5095876;28;20043;-70
2021/06/07 02:03:56;;;;;;;17.63;9.60;;;;;;;15.15;92.64;96509.50;5114015;28;20036;-69
2021/06/07 02:06:25;;;;;;;19.50;10.02;;;;;;;15.15;92.73;96502.34;5114606;28;20031;-69
2021/06/07 02:08:52;;;;;;;18.52;9.60;;;;;;;15.17;92.33;96502.06;5114017;28;20070;-69
2021/06/07 02:11:22;;;;;;;18.23;9.68;;;;;;;15.14;92.00;96500.75;5113849;28;20039;-70
2021/06/07 02:13:51;;;;;;;17.02;8.90;;;;;;;15.26;92.16;96497.91;5113892;28;20138;-68
2021/06/07 02:16:20;;;;;;;18.92;9.75;;;;;;;15.20;92.32;96501.56;5113535;28;20118;-69
2021/06/07 02:18:45;;;;;;;18.17;9.75;;;;;;;15.15;92.87;96499.69;5113464;28;20040;-69
2021/06/07 02:21:14;;;;;;;19.83;9.38;;;;;;;15.08;92.44;96496.50;5113374;28;20104;-68
2021/06/07 02:23:42;;;;;;;20.58;10.40;;;;;;;15.10;92.44;96498.88;5113553;28;20043;-69
2021/06/07 02:26:08;;;;;;;18.98;9.77;;;;;;;15.19;92.40;96500.78;5096266;28;20522;-72
2021/06/07 02:28:37;;;;;;;20.50;10.93;;;;;;;15.20;92.22;96502.38;5114311;28;20035;-71
2021/06/07 02:31:04;;;;;;;19.17;9.98;;;;;;;15.19;92.30;96492.84;5113389;28;20047;-71
2021/06/07 02:33:30;;;;;;;20.33;10.93;;;;;;;15.33;91.66;96497.66;5113626;28;20419;-70
2021/06/07 02:35:56;;;;;;;21.10;10.35;;;;;;;15.23;92.18;96493.13;5113717;28;20042;-72
2021/06/07 02:38:22;;;;;;;18.83;9.93;;;;;;;15.35;91.10;96493.72;5095266;28;20044;-70
2021/06/07 02:40:52;;;;;;;18.42;9.80;;;;;;;15.28;91.73;96493.13;5095207;28;20040;-71
2021/06/07 02:43:17;;;;;;;19.67;10.60;;;;;;;15.21;92.07;96490.72;5113491;28;20047;-71
2021/06/07 02:45:43;;;;;;;21.25;10.30;;;;;;;15.27;92.35;96504.78;5112686;28;20035;-71
2021/06/07 02:48:11;;;;;;;24.52;10.93;;;;;;;15.28;92.57;96495.78;5112346;28;20060;-69
2021/06/07 02:50:40;;;;;;;22.48;10.95;;;;;;;15.14;92.42;96503.41;5112875;28;20040;-70
2021/06/07 02:53:06;;;;;;;19.17;10.88;;;;;;;15.07;92.62;96504.69;5113416;28;20090;-66
2021/06/07 02:55:35;;;;;;;23.13;11.38;;;;;;;15.20;92.95;96499.72;5094530;28;20118;-68
2021/06/07 02:58:01;;;;;;;21.42;11.18;;;;;;;15.24;92.86;96510.63;5112667;28;20039;-68
2021/06/07 03:00:28;;;;;;;22.63;11.70;;;;;;;15.39;92.19;96502.75;5094570;28;20164;-69
2021/06/07 03:02:55;;;;;;;20.83;11.25;;;;;;;15.34;91.91;96499.28;5112725;28;20040;-69
2021/06/07 03:05:24;;;;;;;21.98;10.27;;;;;;;15.34;92.39;96505.38;5112476;28;20050;-69
2021/06/07 03:07:50;;;;;;;21.90;11.70;;;;;;;15.32;92.08;96502.16;5113044;28;20046;-68
2021/06/07 03:10:16;;;;;;;22.52;11.55;;;;;;;15.29;91.96;96497.38;5112872;28;20032;-69
2021/06/07 03:12:42;;;;;;;20.73;11.13;;;;;;;15.40;91.57;96504.31;5117172;28;20505;-68
2021/06/07 03:15:12;;;;;;;23.52;10.70;;;;;;;15.47;91.61;96504.88;5117625;28;20044;-69
2021/06/07 03:17:38;;;;;;;23.63;11.52;;;;;;;15.43;91.56;96501.16;5117477;28;20178;-68
2021/06/07 03:20:07;;;;;;;23.40;11.23;;;;;;;15.31;92.31;96505.88;5116731;28;20135;-67
2021/06/07 03:22:34;;;;;;;22.50;11.63;;;;;;;15.45;91.86;96499.06;5117710;28;20081;-68
2021/06/07 03:25:00;;;;;;;23.57;12.43;;;;;;;15.39;91.75;96508.03;5117360;28;20040;-69
2021/06/07 03:27:25;;;;;;;25.02;12.02;;;;;;;15.53;91.13;96499.59;5117280;28;20042;-69
2021/06/07 03:29:51;;;;;;;24.02;11.85;;;;;;;15.40;91.32;96501.69;5117070;28;20506;-68
2021/06/07 03:32:17;;;;;;;25.17;11.52;;;;;;;15.39;92.04;96505.41;5116868;28;20032;-69
2021/06/07 03:34:43;;;;;;;22.05;11.70;;;;;;;15.22;91.88;96496.81;5116902;28;20044;-69
2021/06/07 03:37:09;;;;;;;23.98;11.93;;;;;;;15.31;92.34;96505.06;5116611;28;20425;-68
2021/06/07 03:39:37;;;;;;;25.63;11.48;;;;;;;15.33;92.26;96503.75;5098127;28;20437;-69
2021/06/07 03:42:04;;;;;;;23.80;12.40;;;;;;;15.38;92.02;96500.31;5117021;28;20088;-69
2021/06/07 03:44:29;;;;;;;22.13;11.25;;;;;;;15.44;91.40;96505.41;5116311;28;20441;-70
2021/06/07 03:46:58;;;;;;;23.80;11.23;;;;;;;15.48;91.72;96511.78;5098011;28;20035;-69
2021/06/07 03:49:24;;;;;;;22.90;10.93;;;;;;;15.35;91.75;96509.59;5116324;28;20118;-67
2021/06/07 03:51:50;;;;;;;23.35;11.60;;;;;;;15.41;91.84;96500.63;5116210;28;20039;-68
2021/06/07 03:54:18;;;;;;;21.65;11.18;;;;;;;15.35;91.59;96501.66;5098252;28;20040;-67
2021/06/07 03:56:45;;;;;;;21.92;10.90;;;;;;;15.37;91.67;96498.75;5116037;28;20031;-68
2021/06/07 03:59:12;;;;;;;27.00;12.05;;;;;;;15.56;90.86;96502.53;5098237;28;20444;-68
2021/06/07 04:01:38;;;;;;;23.75;11.63;;;;;;;15.33;91.89;96500.31;5097538;28;20039;-68
2021/06/07 04:04:06;;;;;;;26.13;12.82;;;;;;;15.28;92.37;96505.56;5116333;28;20409;-68
2021/06/07 04:06:32;;;;;;;23.60;11.32;;;;;;;15.31;92.29;96502.44;5116123;28;20032;-68
2021/06/07 04:09:01;;;;;;;25.30;12.02;;;;;;;15.38;92.24;96495.03;5115877;28;20031;-66
2021/06/07 04:11:26;;;;;;;25.83;12.05;;;;;;;15.30;92.11;96495.53;5115778;28;20043;-69
2021/06/07 04:13:57;;;;;;;23.63;11.15;;;;;;;15.27;92.15;96494.19;5115955;28;20044;-69
2021/06/07 04:16:22;;;;;;;23.70;11.55;;;;;;;15.21;92.16;96495.22;5116486;28;20043;-69
2021/06/07 04:18:48;;;;;;;25.83;11.90;;;;;;;15.32;92.13;96502.16;5116026;28;20054;-70
2021/06/07 04:21:13;;;;;;;26.65;12.07;;;;;;;15.25;92.38;96496.31;5116428;28;20507;-70
2021/06/07 04:23:39;;;;;;;26.15;12.48;;;;;;;15.36;91.85;96503.25;5114653;28;20047;-69
2021/06/07 04:26:05;;;;;;;25.02;11.98;;;;;;;15.52;91.61;96495.34;5115812;28;20509;-70
2021/06/07 04:28:33;;;;;;;23.58;11.00;;;;;;;15.45;91.50;96507.00;5116613;28;20133;-71
2021/06/07 04:31:00;;;;;;;23.48;11.38;;;;;;;15.45;92.12;96500.91;5116035;28;20043;-71
2021/06/07 04:33:26;;;;;;;24.37;11.30;;;;;;;15.49;91.53;96502.75;5098135;28;20044;-71
2021/06/07 04:35:54;;;;;;;22.30;10.43;;;;;;;15.57;91.41;96508.63;5115529;28;20096;-70
2021/06/07 04:38:19;;;;;;;22.15;11.10;;;;;;;15.34;91.83;96504.56;5115560;28;20036;-67
2021/06/07 04:40:45;;;;;;;26.35;11.73;;;;;;;15.41;92.36;96505.91;5097243;28;20463;-70
2021/06/07 04:43:13;;;;;;;22.67;10.30;;;;;;;15.58;91.92;96507.56;5116060;28;20126;-71
2021/06/07 04:45:42;;;;;;;18.42;9.88;;;;;;;15.59;91.80;96506.50;5115779;28;20039;-70
2021/06/07 04:48:10;;;;;;;21.60;10.43;;;;;;;15.60;91.52;96508.09;5097399;28;20039;-70
2021/06/07 04:50:37;;;;;;;21.25;10.00;;;;;;;15.62;90.92;96512.09;5115678;28;20493;-70
2021/06/07 04:53:04;;;;;;;21.95;10.00;;;;;;;15.62;91.10;96512.09;5115808;28;20052;-69
2021/06/07 04:55:33;;;;;;;20.52;10.07;;;;;;;15.58;91.27;96518.19;5114446;28;20043;-69
2021/06/07 04:58:01;;;;;;;20.42;10.57;;;;;;;15.52;90.97;96514.72;5115816;28;20043;-69
2021/06/07 05:00:27;;;;;;;19.27;10.23;;;;;;;15.52;91.06;96514.72;5115711;28;20092;-66
2021/06/07 05:02:55;;;;;;;18.35;8.95;;;;;;;15.63;90.42;96507.63;5115322;28;20048;-70
2021/06/07 05:05:23;;;;;;;18.23;9.13;;;;;;;15.62;90.64;96511.31;5094940;28;20078;-67
2021/06/07 05:07:48;;;;;;;;;;;;;;;15.77;90.04;96513.22;5097587;28;20047;-67
2021/06/07 05:10:17;;;;;;;17.15;8.55;;;;;;;15.61;90.32;96513.16;5114496;28;19920;-68
2021/06/07 05:12:43;;;;;;;17.98;9.30;;;;;;;15.77;90.10;96516.69;5114828;28;20126;-68
2021/06/07 05:15:11;;;;;;;15.35;8.57;;;;;;;15.71;90.32;96513.22;5115150;28;20096;-68
2021/06/07 05:17:40;;;;;;;18.05;9.48;;;;;;;15.65;90.59;96511.59;5115273;28;20047;-68
2021/06/07 05:20:09;;;;;;;16.75;8.95;;;;;;;15.72;90.60;96516.69;5096621;28;20074;-69
2021/06/07 05:22:38;;;;;;;17.67;9.40;;;;;;;15.74;90.46;96514.56;5105121;28;20070;-70
2021/06/07 05:25:08;;;;;;;16.27;8.40;;;;;;;15.85;89.83;96510.06;5113580;28;20040;-64
2021/06/07 05:27:33;;;;;;;15.05;7.97;;;;;;;15.92;89.50;96514.06;5114092;28;20501;-64
2021/06/07 05:30:01;;;;;;;16.65;8.25;;;;;;;15.93;89.21;96517.53;5100703;28;20111;-69
2021/06/07 05:32:27;;;;;;;;;;;;;;;16.11;89.06;96516.25;5098177;28;20039;-70
2021/06/07 05:34:55;;;;;;;15.38;7.45;;;;;;;16.13;89.07;96522.06;5115379;28;19920;-72
2021/06/07 05:37:24;;;;;;;15.52;7.90;;;;;;;16.04;89.23;96523.66;5115552;28;20039;-71
2021/06/07 05:39:51;;;;;;;13.40;7.35;;;;;;;16.02;89.03;96527.34;5082500;28;20426;-72
2021/06/07 05:42:18;;;;;;;17.75;8.45;;;;;;;15.96;90.27;96528.41;5095109;28;20036;-75
2021/06/07 05:44:46;;;;;;;15.15;7.53;;;;;;;15.99;89.76;96530.53;5108011;28;20048;-61
2021/06/07 05:47:11;;;;;;;15.70;8.25;;;;;;;16.00;89.74;96532.13;5114099;28;20100;-61
2021/06/07 05:49:40;;;;;;;13.57;7.35;;;;;;;16.14;89.17;96528.97;5113544;28;20047;-61
2021/06/07 05:52:06;;;;;;;19.67;11.38;;;;;;;16.15;88.89;96527.94;5113655;28;20040;-59
2021/06/07 05:54:32;;;;;;;13.95;7.43;;;;;;;16.20;89.00;96534.03;5113651;28;20063;-61
2021/06/07 05:56:59;;;;;;;14.20;7.30;;;;;;;16.39;87.72;96530.88;5114007;28;20083;-63
2021/06/07 05:59:25;;;;;;;12.87;6.90;;;;;;;16.28;88.59;96530.84;5112776;28;20518;-64
2021/06/07 06:01:51;;;;;;;14.27;7.63;;;;;;;16.20;88.91;96536.69;5095319;28;20070;-59
2021/06/07 06:04:16;;;;;;;14.52;7.50;;;;;;;16.19;88.71;96532.41;5112146;28;20050;-59
2021/06/07 06:06:42;;;;;;;13.23;7.22;;;;;;;16.12;88.46;96536.41;5113258;28;20123;-58
2021/06/07 06:09:08;;;;;;;14.02;7.43;;;;;;;16.11;89.92;96535.59;5113165;28;20285;-59
2021/06/07 06:11:34;;;;;;;15.23;7.70;;;;;;;16.23;90.27;96527.41;5111827;28;20047;-59
2021/06/07 06:14:02;;;;;;;17.15;7.90;;;;;;;16.53;88.46;96542.56;5112983;28;20040;-58
2021/06/07 06:16:31;;;;;;;13.15;7.03;;;;;;;16.69;87.54;96546.03;5113162;28;20040;-58
2021/06/07 06:18:58;;;;;;;13.00;6.88;;;;;;;16.62;87.39;96537.50;5113304;28;20127;-59
2021/06/07 06:21:27;;;;;;;14.23;7.45;;;;;;;16.54;87.50;96538.84;5113471;28;20065;-55
2021/06/07 06:23:56;;;;;;;11.40;6.38;;;;;;;16.74;87.37;96541.53;5112580;28;20112;-57
2021/06/07 06:26:22;;;;;;;13.30;6.88;;;;;;;16.69;87.02;96546.03;5113000;28;20036;-58
2021/06/07 06:28:48;;;;;;;14.57;7.75;;;;;;;16.74;86.86;96543.41;5112940;28;20402;-57
2021/06/07 06:31:16;;;;;;;13.73;7.05;;;;;;;16.63;87.84;96547.06;5094613;28;20515;-58
2021/06/07 06:33:42;;;;;;;;;;;;;;;16.72;87.21;96545.50;5094983;28;20043;-58
2021/06/07 06:36:08;;;;;;;14.07;7.38;;;;;;;16.54;87.60;96546.81;5112553;28;19926;-57
2021/06/07 06:38:35;;;;;;;14.10;7.43;;;;;;;16.70;87.91;96553.72;5112826;28;20498;-57
2021/06/07 06:41:01;;;;;;;13.93;7.07;;;;;;;16.53;88.15;96543.34;5120812;22;20051;-59
2021/06/07 06:43:26;;;;;;;15.80;8.00;;;;;;;16.69;88.89;96546.03;5091914;28;20051;-59
2021/06/07 06:45:52;;;;;;;14.25;7.82;;;;;;;16.67;87.62;96553.44;5091135;28;20051;-60
2021/06/07 06:48:20;;;;;;;13.77;7.60;;;;;;;16.86;87.13;96546.56;5091997;28;20032;-60
2021/06/07 06:50:46;;;;;;;15.05;7.38;;;;;;;16.88;87.36;96554.25;5091807;28;20055;-59
2021/06/07 06:53:15;;;;;;;13.65;7.70;;;;;;;16.92;86.90;96556.13;5069867;28;20131;-69
2021/06/07 06:55:42;;;;;;;14.45;7.53;;;;;;;16.91;87.87;96548.44;5091896;28;20052;-70
2021/06/07 06:58:08;;;;;;;15.38;8.73;;;;;;;17.03;86.61;96552.38;5091896;28;20489;-69
2021/06/07 07:00:37;;;;;;;13.88;7.72;;;;;;;17.03;86.21;96554.25;5073601;28;20050;-69
2021/06/07 07:03:06;;;;;;;13.43;7.72;;;;;;;16.99;86.44;96555.84;5075324;28;20116;-71
2021/06/07 07:05:33;;;;;;;14.80;7.75;;;;;;;16.88;86.50;96559.56;5091951;28;20042;-70
2021/06/07 07:07:59;;;;;;;14.75;7.90;;;;;;;16.90;86.88;96555.59;5091917;28;20044;-71
2021/06/07 07:10:24;;;;;;;14.48;8.15;;;;;;;17.14;84.90;96553.16;5091872;28;20047;-69
2021/06/07 07:12:50;;;;;;;15.93;8.02;;;;;;;17.09;86.28;96555.84;5074070;28;20132;-69
2021/06/07 07:15:16;;;;;;;15.40;7.60;;;;;;;17.03;85.39;96551.59;5073553;28;20523;-63
2021/06/07 07:17:42;;;;;;;14.38;7.82;;;;;;;16.96;85.66;96562.50;5092434;28;20497;-63
2021/06/07 07:20:09;;;;;;;15.48;8.05;;;;;;;16.78;86.29;96563.81;5091300;28;20449;-62
2021/06/07 07:22:36;;;;;;;13.77;7.97;;;;;;;16.84;86.79;96561.16;5092161;28;20040;-63
2021/06/07 07:25:03;;;;;;;14.57;8.27;;;;;;;16.74;86.14;96564.66;5092210;28;20124;-61
2021/06/07 07:27:29;;;;;;;14.55;8.27;;;;;;;16.52;87.16;96565.66;5091359;28;20040;-61
2021/06/07 07:29:55;;;;;;;15.07;8.00;;;;;;;16.60;87.51;96560.88;5091150;28;20076;-59
2021/06/07 07:32:25;;;;;;;13.95;7.93;;;;;;;16.57;86.83;96569.38;5090771;28;20039;-62
2021/06/07 07:34:51;;;;;;;14.77;7.75;;;;;;;16.73;87.33;96565.69;5095021;28;20093;-68
2021/06/07 07:37:16;;;;;;;15.30;8.48;;;;;;;16.69;86.98;96568.06;5098626;28;20048;-68
2021/06/07 07:39:43;;;;;;;14.43;8.38;;;;;;;16.72;87.41;96569.41;5094397;28;20044;-68
2021/06/07 07:42:10;;;;;;;16.80;9.00;;;;;;;16.93;88.20;96573.66;5093500;28;20182;-69
2021/06/07 07:44:36;;;;;;;14.55;7.97;;;;;;;17.22;86.88;96575.75;5092834;28;20043;-68
2021/06/07 07:47:05;;;;;;;14.23;8.18;;;;;;;17.54;85.24;96576.22;5091975;28;20036;-68
2021/06/07 07:49:33;;;;;;;13.88;7.68;;;;;;;17.67;84.04;96572.19;5091897;28;20062;-68
2021/06/07 07:51:59;;;;;;;14.75;8.98;;;;;;;18.15;84.63;96571.72;5091683;28;20407;-69
2021/06/07 07:54:24;;;;;;;14.40;8.13;;;;;;;18.57;80.86;96568.53;5092104;28;20089;-69
2021/06/07 07:56:52;;;;;;;13.52;7.18;;;;;;;18.97;78.85;96569.31;5092342;28;20040;-68
2021/06/07 07:59:18;;;;;;;13.50;7.72;;;;;;;19.49;76.92;96559.72;5094993;28;20056;-68
2021/06/07 08:01:43;;;;;;;14.30;8.05;;;;;;;19.61;77.08;96565.50;5076826;28;20384;-68
2021/06/07 08:04:09;;;;;;;15.82;8.32;;;;;;;19.54;76.97;96565.81;5095333;28;20093;-69
2021/06/07 08:06:35;;;;;;;15.55;8.27;;;;;;;19.05;77.95;96564.19;5094991;28;20046;-68
2021/06/07 08:09:00;;;;;;;13.43;7.75;;;;;;;19.60;77.42;96566.56;5094857;28;20040;-68
2021/06/07 08:11:26;;;;;;;12.35;7.63;;;;;;;19.93;75.20;96564.84;5094952;28;20491;-69
2021/06/07 08:13:53;;;;;;;13.80;7.07;;;;;;;19.87;73.90;96564.13;5095456;28;20054;-69
2021/06/07 08:16:21;;;;;;;11.63;6.30;;;;;;;19.67;75.03;96562.47;5095003;28;20032;-68
2021/06/07 08:18:47;;;;;;;11.20;5.88;;;;;;;19.77;75.37;96563.44;5095159;28;20053;-69
2021/06/07 08:21:13;;;;;;;12.07;6.22;;;;;;;19.27;75.95;96560.22;5095631;28;20036;-69
2021/06/07 08:23:41;;;;;;;10.32;5.72;;;;;;;19.45;73.48;96562.16;5095215;28;20060;-67
2021/06/07 08:26:06;;;;;;;;;;;;;;;19.31;75.98;96556.69;5095110;28;20070;-68
2021/06/07 08:28:32;;;;;;;11.15;6.13;;;;;;;18.82;77.72;96565.69;5094806;28;19920;-68
2021/06/07 08:30:59;;;;;;;12.77;6.25;;;;;;;18.87;76.82;96567.53;5076303;28;20036;-68
2021/06/07 08:33:25;;;;;;;18.27;9.45;;;;;;;18.85;76.47;96561.69;5094502;28;20524;-68
2021/06/07 08:35:53;;;;;;;10.55;5.93;;;;;;;19.38;75.32;96567.06;5094191;28;20044;-69
2021/06/07 08:38:19;;;;;;;10.85;6.05;;;;;;;19.38;74.66;96564.38;5094767;28;20086;-68
2021/06/07 08:40:47;;;;;;;12.07;6.50;;;;;;;19.45;75.84;96566.72;5093993;28;20040;-68
2021/06/07 08:43:13;;;;;;;12.82;6.50;;;;;;;19.15;77.21;96564.06;5095894;28;20050;-69
2021/06/07 08:45:39;;;;;;;12.75;6.72;;;;;;;19.27;75.32;96570.91;5094456;28;20040;-68
2021/06/07 08:48:07;;;;;;;14.60;6.53;;;;;;;19.13;75.69;96565.44;5094608;28;20128;-68
2021/06/07 08:50:35;;;;;;;13.20;6.65;;;;;;;19.20;75.98;96565.09;5094178;28;20097;-69
2021/06/07 08:53:01;;;;;;;11.63;6.07;;;;;;;19.27;75.15;96561.03;5094692;28;20380;-68
2021/06/07 08:55:29;;;;;;;11.77;6.70;;;;;;;19.56;74.51;96574.31;5076903;28;20047;-68
2021/06/07 08:57:56;;;;;;;12.73;6.25;;;;;;;19.88;72.37;96570.25;5094584;28;20442;-68
2021/06/07 09:00:24;;;;;;;11.90;6.43;;;;;;;20.16;72.01;96569.34;5094025;28;20040;-68
2021/06/07 09:02:50;;;;;;;;;;;;;;;20.17;72.79;96573.59;5077410;28;20074;-68
2021/06/07 09:05:18;;;;;;;11.98;6.75;;;;;;;20.51;70.91;96569.16;5094810;28;19920;-68
2021/06/07 09:08:00;;;;;;;13.73;7.30;;;;;;;20.77;69.55;96572.22;5077189;28;20048;-68
2021/06/07 09:10:27;;;;;;;12.52;7.40;;;;;;;20.96;69.50;96573.78;5094312;28;20044;-68
2021/06/07 09:12:56;;;;;;;12.77;7.38;;;;;;;21.70;66.45;96571.13;5077219;28;20048;-67
2021/06/07 09:15:28;;;;;;;15.43;8.57;;;;;;;21.59;66.61;96569.75;5077325;28;20040;-68
2021/06/07 09:17:54;;;;;;;14.00;7.35;;;;;;;21.78;65.10;96568.84;5094904;28;20055;-68
2021/06/07 09:20:26;;;;;;;11.20;6.63;;;;;;;21.33;67.43;96571.31;5094023;28;20495;-68
2021/06/07 09:22:53;;;;;;;11.48;7.00;;;;;;;21.64;65.52;96566.19;5093950;28;20048;-68
2021/06/07 09:25:23;;;;;;;13.30;6.53;;;;;;;21.66;65.65;96570.13;5094075;28;20472;-70
2021/06/07 09:28:11;;;;;;;12.68;7.35;;;;;;;21.62;64.77;96563.78;5094299;28;20044;-69
2021/06/07 09:30:40;;;;;;;11.93;6.75;;;;;;;21.89;64.61;96564.84;5093457;28;20245;-68
2021/06/07 09:33:25;;;;;;;12.88;6.45;;;;;;;21.71;64.35;96567.34;5093983;28;20058;-68
2021/06/07 09:36:29;;;;;;;11.52;6.07;;;;;;;21.68;65.40;96567.94;5093298;28;20044;-68
2021/06/07 09:38:58;;;;;;;13.63;7.10;;;;;;;21.66;66.05;96572.81;5093375;28;20044;-69
2021/06/07 09:41:24;;;;;;;11.50;6.40;;;;;;;21.74;65.45;96576.69;5093688;28;20043;-69
2021/06/07 09:43:52;;;;;;;15.07;8.55;;;;;;;21.78;65.18;96571.50;5093842;28;20036;-69
2021/06/07 09:46:21;;;;;;;12.88;7.47;;;;;;;21.65;64.79;96567.75;5093738;28;20036;-69
2021/06/07 09:48:47;;;;;;;11.77;6.57;;;;;;;21.91;64.75;96576.09;5093598;28;20048;-68
2021/06/07 09:51:20;;;;;;;12.57;7.28;;;;;;;21.99;62.21;96572.69;5093493;28;20043;-68
2021/06/07 09:53:52;;;;;;;12.38;6.75;;;;;;;21.84;64.03;96575.66;5093555;28;20112;-69
2021/06/07 09:56:22;;;;;;;11.43;6.28;;;;;;;21.84;63.89;96576.47;5095386;28;20567;-68
2021/06/07 09:58:48;;;;;;;12.88;6.45;;;;;;;21.37;66.95;96572.31;5095680;28;20048;-68
2021/06/07 10:01:15;;;;;;;12.98;6.93;;;;;;;21.40;64.41;96577.84;5096191;28;20036;-69
2021/06/07 10:03:44;;;;;;;12.43;6.97;;;;;;;20.98;66.29;96568.13;5095265;28;20052;-68
2021/06/07 10:06:25;;;;;;;11.10;6.20;;;;;;;21.51;64.45;96573.09;5094438;28;20040;-67
2021/06/07 10:08:57;;;;;;;12.13;7.05;;;;;;;22.09;63.01;96577.84;5078804;28;20067;-69
2021/06/07 10:11:25;;;;;;;10.55;5.95;;;;;;;22.59;61.74;96572.47;5093831;28;20399;-68
2021/06/07 10:14:05;;;;;;;13.60;6.45;;;;;;;22.12;62.91;96566.56;5074630;28;20499;-68
2021/06/07 10:16:31;;;;;;;11.45;6.25;;;;;;;22.70;60.08;96565.75;5093320;28;20048;-69
2021/06/07 10:19:03;;;;;;;14.30;6.63;;;;;;;22.41;60.83;96560.03;5092696;28;20082;-68
2021/06/07 10:21:29;;;;;;;11.80;5.88;;;;;;;22.34;62.22;96563.13;5093213;28;20470;-68
2021/06/07 10:23:57;;;;;;;12.93;6.15;;;;;;;22.48;60.32;96557.72;5093514;28;20070;-69
2021/06/07 10:26:23;;;;;;;10.93;5.75;;;;;;;22.09;61.89;96561.75;5093440;28;20035;-68
2021/06/07 10:28:55;;;;;;;10.07;5.70;;;;;;;21.75;63.52;96560.31;5093272;28;20048;-69
2021/06/07 10:31:24;;;;;;;10.27;5.90;;;;;;;21.71;63.08;96562.00;5093431;28;20143;-69
2021/06/07 10:33:59;;;;;;;12.73;5.93;;;;;;;22.36;61.06;96558.25;5092852;28;20036;-69
2021/06/07 10:36:36;;;;;;;11.88;6.50;;;;;;;21.84;62.82;96564.97;5093079;28;20047;-69
2021/06/07 10:39:27;;;;;;;10.60;6.40;;;;;;;22.23;61.88;96557.22;5074408;28;20397;-69
2021/06/07 10:42:26;;;;;;;12.00;5.72;;;;;;;22.20;61.98;96555.13;5092895;28;20471;-69
2021/06/07 10:45:03;;;;;;;11.50;5.95;;;;;;;21.88;62.38;96566.75;5093342;28;20050;-69
2021/06/07 10:47:44;;;;;;;11.95;5.95;;;;;;;22.47;60.53;96556.13;5092790;28;20044;-70
2021/06/07 10:50:12;;;;;;;12.48;5.97;;;;;;;22.38;61.03;96557.94;5092241;28;20444;-68
2021/06/07 10:52:42;;;;;;;;;;;;;;;22.57;60.37;96566.63;5093079;28;20414;-69
2021/06/07 10:55:11;;;;;;;11.10;5.93;;;;;;;21.94;61.95;96564.75;5092821;28;19923;-69
2021/06/07 10:57:39;;;;;;;11.40;5.65;;;;;;;21.44;63.11;96568.13;5092779;28;20444;-69
2021/06/07 11:00:14;;;;;;;10.18;5.05;;;;;;;21.07;64.38;96558.34;5074843;28;20044;-68
2021/06/07 11:02:43;;;;;;;10.50;5.28;;;;;;;21.89;63.02;96564.84;5093405;28;20032;-68
2021/06/07 11:05:12;;;;;;;10.90;6.32;;;;;;;22.05;62.94;96566.13;5098756;28;20107;-69
2021/06/07 11:07:42;;;;;;;12.80;6.63;;;;;;;22.15;63.10;96565.94;5093931;28;20064;-68
2021/06/07 11:10:12;;;;;;;9.75;5.47;;;;;;;22.56;61.40;96559.69;5093441;28;20119;-69
2021/06/07 11:12:38;;;;;;;11.80;6.20;;;;;;;22.11;62.92;96564.16;5092797;28;20068;-69
2021/06/07 11:15:08;;;;;;;11.77;5.93;;;;;;;22.21;62.82;96562.06;5092441;28;20044;-68
2021/06/07 11:17:34;;;;;;;11.55;5.45;;;;;;;22.49;60.75;96553.94;5092224;28;20040;-68
2021/06/07 11:19:59;;;;;;;10.50;5.47;;;;;;;23.17;58.09;96552.06;5092503;28;20150;-68
2021/06/07 11:22:27;;;;;;;11.27;5.80;;;;;;;22.58;59.93;96552.13;5092600;28;20514;-68
2021/06/07 11:25:12;;;;;;;11.88;6.20;;;;;;;23.05;59.96;96549.94;5093168;28;20496;-69
2021/06/07 11:27:42;;;;;;;11.38;5.32;;;;;;;23.66;58.01;96551.03;5092372;28;20036;-67